Time;durP1;ratioP1;P1;durP2;ratioP2;P2;SDS_P1;SDS_P2;PMS_P1;PMS_P2;Temp;Humidity;BMP_temperature;BMP_pressure;BME280_temperature;BME280_humidity;BME280_pressure;Samples;Min_cycle;Max_cycle;Signal;HPM_P1;HPM_P2
2023/06/16 00:01:35;;;;;;;3.60;1.77;;;19.70;95.80;;;;;;5015482;28;20609;-94
2023/06/16 00:04:03;;;;;;;2.60;2.13;;;19.70;99.90;;;;;;5016847;28;20179;-89
2023/06/16 00:06:29;;;;;;;3.20;1.87;;;19.70;99.90;;;;;;5015999;28;20838;-93
2023/06/16 00:08:56;;;;;;;3.43;1.40;;;19.70;95.30;;;;;;5015643;28;20413;-90
2023/06/16 00:11:22;;;;;;;2.70;1.73;;;19.70;95.30;;;;;;5016434;28;20433;-93
2023/06/16 00:13:49;;;;;;;3.30;1.80;;;19.70;92.00;;;;;;5016516;28;20502;-85
2023/06/16 00:16:19;;;;;;;4.73;2.70;;;19.70;93.30;;;;;;5016369;28;20463;-92
2023/06/16 00:18:57;;;;;;;3.13;1.83;;;19.70;94.80;;;;;;5016266;28;20733;-93
2023/06/16 00:21:38;;;;;;;3.73;2.23;;;19.60;99.90;;;;;;5015020;28;20485;-91
2023/06/16 00:24:05;;;;;;;2.77;1.80;;;19.60;99.90;;;;;;5014359;28;20741;-87
2023/06/16 00:26:30;;;;;;;4.80;2.23;;;19.60;99.90;;;;;;5015763;28;20525;-88
2023/06/16 00:28:56;;;;;;;3.47;2.70;;;19.60;99.90;;;;;;5015806;28;20420;-87
2023/06/16 00:31:21;;;;;;;3.23;2.10;;;19.60;99.90;;;;;;5016031;28;20183;-88
2023/06/16 00:33:47;;;;;;;2.73;2.00;;;19.60;99.90;;;;;;5015081;28;20630;-86
2023/06/16 00:36:12;;;;;;;5.30;2.47;;;19.60;99.90;;;;;;5015183;28;20271;-89
2023/06/16 00:38:38;;;;;;;3.00;2.50;;;19.60;99.90;;;;;;5014843;28;20176;-85
2023/06/16 00:41:03;;;;;;;2.60;2.10;;;19.50;99.90;;;;;;5014016;28;20174;-87
2023/06/16 00:43:29;;;;;;;3.63;2.07;;;19.60;99.90;;;;;;5013861;28;20211;-90
2023/06/16 00:45:54;;;;;;;5.27;2.57;;;19.60;99.90;;;;;;5014897;28;20220;-87
2023/06/16 00:48:20;;;;;;;3.07;2.00;;;19.60;99.90;;;;;;5015186;28;20170;-81
2023/06/16 00:50:47;;;;;;;2.93;2.60;;;19.60;99.90;;;;;;5014861;28;20622;-79
2023/06/16 00:53:12;;;;;;;2.50;2.30;;;19.60;99.90;;;;;;5013370;28;20422;-84
2023/06/16 00:55:40;;;;;;;3.30;2.23;;;19.60;99.90;;;;;;5014807;28;20474;-90
2023/06/16 00:58:05;;;;;;;6.20;2.53;;;19.60;99.90;;;;;;5014076;28;20189;-89
2023/06/16 01:00:35;;;;;;;6.60;2.83;;;19.60;99.90;;;;;;5014708;28;20438;-80
2023/06/16 01:03:04;;;;;;;4.00;2.20;;;19.60;99.90;;;;;;5014492;28;20176;-84
2023/06/16 01:05:31;;;;;;;2.73;2.00;;;19.60;99.90;;;;;;5014169;28;20491;-90
2023/06/16 01:08:25;;;;;;;4.23;3.00;;;19.60;99.90;;;;;;5014596;28;20411;-89
2023/06/16 01:11:20;;;;;;;3.70;1.90;;;19.60;99.90;;;;;;5014817;28;20491;-90
2023/06/16 01:14:12;;;;;;;3.63;2.70;;;19.60;99.90;;;;;;5014821;28;20491;-90
2023/06/16 01:16:41;;;;;;;3.27;2.00;;;19.60;99.90;;;;;;5015159;28;20960;-91
2023/06/16 01:19:13;;;;;;;3.53;2.67;;;19.60;99.90;;;;;;5014882;28;20407;-91
2023/06/16 01:22:04;;;;;;;5.23;1.80;;;19.60;99.90;;;;;;5014764;28;20399;-84
2023/06/16 01:24:33;;;;;;;3.07;2.27;;;19.60;99.90;;;;;;5029942;28;20413;-90
2023/06/16 01:27:00;;;;;;;3.40;2.60;;;19.60;99.90;;;;;;5014525;28;20472;-92
2023/06/16 01:29:26;;;;;;;3.23;2.63;;;19.60;99.90;;;;;;5014465;28;20775;-88
2023/06/16 01:31:54;;;;;;;3.23;2.93;;;19.60;99.90;;;;;;5014554;28;20504;-92
2023/06/16 01:34:21;;;;;;;5.07;3.27;;;19.60;99.90;;;;;;5014675;28;20420;-89
2023/06/16 01:36:47;;;;;;;3.30;2.10;;;19.60;99.90;;;;;;5014795;28;20417;-92
2023/06/16 01:39:16;;;;;;;5.13;2.97;;;19.50;99.90;;;;;;5014718;28;20430;-84
2023/06/16 01:41:41;;;;;;;4.63;1.60;;;19.60;99.90;;;;;;5014556;28;20904;-90
2023/06/16 01:44:08;;;;;;;3.23;2.00;;;19.60;99.90;;;;;;5014662;28;20449;-92
2023/06/16 01:46:34;;;;;;;3.00;2.00;;;19.50;99.90;;;;;;5013241;28;20229;-89
2023/06/16 01:49:00;;;;;;;4.43;2.17;;;19.50;99.90;;;;;;5014103;28;20447;-79
2023/06/16 01:51:26;;;;;;;3.03;1.73;;;19.40;99.90;;;;;;5013801;28;20409;-80
2023/06/16 01:53:52;;;;;;;3.37;2.87;;;19.30;99.90;;;;;;5012963;28;20763;-80
2023/06/16 01:56:18;;;;;;;3.47;2.20;;;19.30;99.90;;;;;;5013535;28;20182;-81
2023/06/16 01:58:43;;;;;;;4.50;2.80;;;19.20;1.00;;;;;;5013544;28;20417;-81
2023/06/16 02:01:17;;;;;;;3.27;2.17;;;19.20;1.00;;;;;;5013538;28;20561;-80
2023/06/16 02:03:48;;;;;;;3.63;2.50;;;19.10;1.00;;;;;;5013572;28;20174;-81
2023/06/16 02:06:23;;;;;;;6.00;2.90;;;19.10;1.00;;;;;;5013324;28;20880;-80
2023/06/16 02:08:52;;;;;;;3.37;2.80;;;19.10;1.00;;;;;;5013167;28;20863;-79
2023/06/16 02:11:18;;;;;;;3.57;2.50;;;19.10;1.00;;;;;;5013440;28;20418;-83
2023/06/16 02:13:45;;;;;;;3.50;2.70;;;19.10;1.00;;;;;;5013366;28;20414;-80
2023/06/16 02:16:10;;;;;;;2.20;1.53;;;19.20;1.00;;;;;;5013298;28;20519;-79
2023/06/16 02:18:36;;;;;;;5.13;3.60;;;19.10;1.00;;;;;;5013664;28;20501;-79
2023/06/16 02:21:01;;;;;;;5.70;3.07;;;19.10;1.00;;;;;;5013352;28;20180;-79
2023/06/16 02:23:27;;;;;;;3.70;2.83;;;19.10;1.00;;;;;;5012902;28;20233;-80
2023/06/16 02:25:52;;;;;;;3.73;2.27;;;19.20;99.90;;;;;;5013081;28;20213;-79
2023/06/16 02:28:18;;;;;;;5.43;3.30;;;19.30;99.90;;;;;;5012103;28;20546;-79
2023/06/16 02:30:44;;;;;;;3.60;2.33;;;19.30;99.90;;;;;;5013094;28;20165;-79
2023/06/16 02:33:12;;;;;;;3.70;3.10;;;19.30;99.90;;;;;;5013204;28;20180;-78
2023/06/16 02:35:38;;;;;;;3.73;2.90;;;19.30;99.90;;;;;;5013180;28;20464;-79
2023/06/16 02:38:04;;;;;;;5.37;3.10;;;19.20;1.00;;;;;;5012839;28;20419;-79
2023/06/16 02:40:30;;;;;;;4.33;2.53;;;19.30;1.00;;;;;;5013220;28;20174;-91
2023/06/16 02:42:55;;;;;;;4.00;2.70;;;19.30;1.00;;;;;;5013103;28;20906;-79
2023/06/16 02:45:21;;;;;;;6.47;3.30;;;19.30;1.00;;;;;;5012893;28;20556;-78
2023/06/16 02:47:46;;;;;;;7.10;3.07;;;19.30;1.00;;;;;;5013535;28;20186;-94
2023/06/16 02:50:12;;;;;;;5.90;3.67;;;19.30;1.00;;;;;;5021816;28;20174;-90
2023/06/16 02:52:41;;;;;;;4.20;2.73;;;19.30;1.00;;;;;;5016706;28;20580;-80
2023/06/16 02:55:08;;;;;;;3.60;2.70;;;19.30;1.00;;;;;;5013131;28;20176;-83
2023/06/16 02:57:34;;;;;;;4.30;2.83;;;19.30;99.90;;;;;;5013140;28;20418;-87
2023/06/16 02:59:59;;;;;;;5.67;3.23;;;19.30;1.00;;;;;;5013063;28;20899;-86
2023/06/16 03:02:25;;;;;;;7.10;3.53;;;19.30;99.90;;;;;;5013146;28;20502;-81
2023/06/16 03:04:50;;;;;;;4.60;2.70;;;19.30;1.00;;;;;;5014488;28;20201;-80
2023/06/16 03:07:17;;;;;;;4.50;3.30;;;19.20;1.00;;;;;;5016695;28;20694;-81
2023/06/16 03:09:43;;;;;;;4.03;2.97;;;19.20;99.90;;;;;;5016546;28;20173;-87
2023/06/16 03:12:09;;;;;;;5.03;3.10;;;19.20;99.90;;;;;;5016893;28;20417;-80
2023/06/16 03:14:35;;;;;;;4.53;3.00;;;19.10;1.00;;;;;;5017180;28;20511;-80
2023/06/16 03:17:01;;;;;;;5.20;2.77;;;19.10;33.30;;;;;;5032456;28;20926;-80
2023/06/16 03:19:27;;;;;;;4.37;3.03;;;19.00;1.00;;;;;;5017007;28;20416;-92
2023/06/16 03:21:53;;;;;;;4.07;2.40;;;18.90;56.60;;;;;;5016939;28;20421;-79
2023/06/16 03:24:18;;;;;;;5.30;2.87;;;18.90;99.90;;;;;;5016782;28;20184;-79
2023/06/16 03:26:44;;;;;;;6.10;3.80;;;18.90;99.90;;;;;;5016939;28;20244;-95
2023/06/16 03:29:12;;;;;;;3.80;2.90;;;18.80;1.00;;;;;;5015739;28;20194;-79
2023/06/16 03:31:37;;;;;;;2.60;1.87;;;18.80;99.90;;;;;;5016799;28;20421;-79
2023/06/16 03:34:03;;;;;;;3.90;2.20;;;18.70;1.00;;;;;;5016544;28;20808;-86
2023/06/16 03:36:32;;;;;;;3.50;2.70;;;18.70;99.90;;;;;;5016318;28;20182;-89
2023/06/16 03:38:58;;;;;;;4.90;2.67;;;18.70;99.90;;;;;;5015856;28;20697;-85
2023/06/16 03:41:23;;;;;;;4.50;2.92;;;18.70;1.00;;;;;;5015890;28;20427;-88
2023/06/16 03:43:49;;;;;;;4.40;3.03;;;18.60;1.00;;;;;;5016204;28;20169;-89
2023/06/16 03:46:14;;;;;;;5.57;3.30;;;18.70;1.00;;;;;;5015947;28;20243;-79
2023/06/16 03:48:40;;;;;;;5.93;2.93;;;18.80;99.90;;;;;;5016448;28;20634;-90
2023/06/16 03:51:05;;;;;;;4.17;3.70;;;18.80;99.90;;;;;;5016280;28;20176;-80
2023/06/16 03:53:31;;;;;;;5.53;3.23;;;18.80;99.90;;;;;;5015984;28;20173;-80
2023/06/16 03:55:56;;;;;;;6.10;3.20;;;18.80;24.10;;;;;;5016253;28;20178;-89
2023/06/16 03:58:23;;;;;;;3.37;2.50;;;18.80;1.00;;;;;;5015909;28;20193;-90
2023/06/16 04:00:50;;;;;;;3.47;3.10;;;18.80;99.90;;;;;;5031143;28;20697;-80
2023/06/16 04:03:15;;;;;;;2.60;2.17;;;18.80;1.00;;;;;;5015589;28;20438;-89
2023/06/16 04:05:41;;;;;;;4.13;2.90;;;18.90;99.90;;;;;;5015372;28;20473;-89
2023/06/16 04:08:07;;;;;;;5.13;3.03;;;18.80;99.90;;;;;;5015055;28;20181;-82
2023/06/16 04:10:33;;;;;;;4.60;3.20;;;18.80;1.00;;;;;;5015580;28;20462;-80
2023/06/16 04:12:58;;;;;;;4.10;2.93;;;18.80;1.00;;;;;;5016234;28;20218;-80
2023/06/16 04:15:24;;;;;;;4.00;2.97;;;18.70;1.00;;;;;;5015916;28;20959;-81
2023/06/16 04:17:49;;;;;;;3.70;2.70;;;18.60;30.10;;;;;;5015874;28;20534;-81
2023/06/16 04:20:15;;;;;;;4.47;3.43;;;18.60;99.90;;;;;;5015383;28;20170;-81
2023/06/16 04:22:40;;;;;;;6.70;2.93;;;18.60;1.00;;;;;;5030742;28;20207;-90
2023/06/16 04:25:09;;;;;;;5.63;3.63;;;18.70;1.00;;;;;;5015079;28;20199;-79
2023/06/16 04:27:36;;;;;;;5.33;3.07;;;18.70;1.00;;;;;;5015097;28;20180;-80
2023/06/16 04:30:04;;;;;;;5.80;3.70;;;18.80;99.90;;;;;;5015135;28;20567;-81
2023/06/16 04:32:30;;;;;;;3.73;3.17;;;18.70;1.00;;;;;;5015192;28;20428;-81
2023/06/16 04:34:57;;;;;;;4.17;3.00;;;18.60;99.90;;;;;;5014950;28;20432;-81
2023/06/16 04:37:23;;;;;;;5.80;3.93;;;18.70;99.90;;;;;;5014689;28;20630;-80
2023/06/16 04:39:48;;;;;;;6.93;3.50;;;18.70;99.90;;;;;;5013538;28;20486;-81
2023/06/16 04:42:14;;;;;;;5.60;3.90;;;18.80;99.90;;;;;;5014756;28;20176;-80
2023/06/16 04:44:41;;;;;;;4.80;4.17;;;18.80;1.00;;;;;;5013662;28;20415;-80
2023/06/16 04:47:09;;;;;;;4.70;4.00;;;18.90;69.90;;;;;;5014494;28;20242;-80
2023/06/16 04:49:35;;;;;;;4.80;3.80;;;19.00;1.00;;;;;;5014763;28;20424;-80
2023/06/16 04:52:00;;;;;;;4.63;3.90;;;19.00;99.90;;;;;;5014398;28;20411;-80
2023/06/16 04:54:26;;;;;;;5.03;4.10;;;19.00;99.90;;;;;;5013060;28;20427;-80
2023/06/16 04:56:52;;;;;;;4.70;3.90;;;19.00;99.90;;;;;;5014445;28;20664;-81
2023/06/16 04:59:17;;;;;;;5.83;4.13;;;19.00;99.90;;;;;;5012960;28;20420;-81
2023/06/16 05:01:43;;;;;;;4.60;4.07;;;18.90;99.90;;;;;;5014358;28;20688;-80
2023/06/16 05:04:08;;;;;;;5.33;3.60;;;18.90;99.90;;;;;;5014436;28;20208;-81
2023/06/16 05:06:37;;;;;;;4.40;3.50;;;19.00;99.90;;;;;;5013944;28;20233;-81
2023/06/16 05:09:04;;;;;;;6.17;3.80;;;19.00;99.90;;;;;;5013816;28;20174;-81
2023/06/16 05:11:30;;;;;;;4.73;4.30;;;19.10;99.90;;;;;;5014145;28;20928;-81
2023/06/16 05:13:55;;;;;;;4.07;3.67;;;19.10;99.90;;;;;;5014247;28;20423;-84
2023/06/16 05:16:21;;;;;;;5.60;3.60;;;19.20;99.90;;;;;;5014109;28;20815;-83
2023/06/16 05:18:46;;;;;;;5.73;4.20;;;19.20;99.90;;;;;;5013990;28;20185;-85
2023/06/16 05:21:12;;;;;;;5.00;4.20;;;19.30;1.00;;;;;;5014743;28;20185;-80
2023/06/16 05:23:37;;;;;;;5.97;3.90;;;19.50;1.00;;;;;;5025411;28;20646;-81
2023/06/16 05:26:03;;;;;;;4.80;3.60;;;19.50;99.90;;;;;;5038033;28;20210;-80
2023/06/16 05:28:29;;;;;;;6.40;4.60;;;19.60;99.90;;;;;;5030074;28;20209;-80
2023/06/16 05:30:54;;;;;;;6.00;3.80;;;19.70;1.00;;;;;;5027031;28;20476;-80
2023/06/16 05:33:20;;;;;;;6.87;4.03;;;19.80;1.00;;;;;;5022058;28;20186;-80
2023/06/16 05:35:46;;;;;;;4.60;3.17;;;19.80;1.00;;;;;;5013514;28;20167;-81
2023/06/16 05:38:11;;;;;;;6.73;3.87;;;19.90;99.90;;;;;;5013326;28;20416;-79
2023/06/16 05:40:37;;;;;;;4.73;3.47;;;20.00;99.90;;;;;;5013722;28;20178;-81
2023/06/16 05:43:02;;;;;;;4.53;3.57;;;20.00;19.10;;;;;;5028726;28;20659;-79
2023/06/16 05:45:27;;;;;;;5.47;2.77;;;20.00;1.00;;;;;;5013412;28;20287;-79
2023/06/16 05:47:53;;;;;;;5.00;3.70;;;20.10;99.90;;;;;;5013528;28;20209;-85
2023/06/16 05:50:18;;;;;;;6.00;3.50;;;20.30;1.00;;;;;;5013551;28;20655;-85
2023/06/16 05:52:44;;;;;;;4.80;4.03;;;20.30;99.90;;;;;;5007988;28;20181;-84
2023/06/16 05:55:10;;;;;;;5.00;3.77;;;20.30;99.90;;;;;;5003968;28;20183;-79
2023/06/16 05:57:36;;;;;;;4.77;3.43;;;20.30;99.90;;;;;;5002795;28;20645;-79
2023/06/16 06:00:04;;;;;;;5.00;4.33;;;20.30;59.90;;;;;;5004179;28;20166;-80
2023/06/16 06:02:30;;;;;;;6.63;4.03;;;20.30;28.10;;;;;;5002595;28;20811;-80
2023/06/16 06:04:55;;;;;;;8.10;6.57;;;20.30;42.90;;;;;;5005733;28;20466;-80
2023/06/16 06:07:20;;;;;;;5.80;5.10;;;20.30;99.90;;;;;;5006863;28;20234;-83
2023/06/16 06:09:46;;;;;;;5.67;4.37;;;20.30;99.90;;;;;;5002056;28;20637;-80
2023/06/16 06:12:11;;;;;;;7.67;5.43;;;20.40;99.90;;;;;;5003460;28;20179;-81
2023/06/16 06:14:37;;;;;;;6.03;5.47;;;20.40;99.90;;;;;;5011802;28;20240;-81
2023/06/16 06:17:03;;;;;;;5.40;4.90;;;20.40;1.00;;;;;;5011392;28;20249;-79
2023/06/16 06:19:29;;;;;;;5.80;5.27;;;20.40;1.00;;;;;;5012105;28;20193;-85
2023/06/16 06:21:54;;;;;;;6.93;5.90;;;20.40;22.20;;;;;;5012905;28;20421;-81
2023/06/16 06:24:20;;;;;;;7.07;6.20;;;20.40;68.40;;;;;;5011898;28;20177;-83
2023/06/16 06:26:46;;;;;;;9.73;7.63;;;20.40;99.90;;;;;;5013015;28;20267;-82
2023/06/16 06:29:13;;;;;;;9.47;8.10;;;20.30;1.00;;;;;;5013155;28;20426;-79
2023/06/16 06:31:38;;;;;;;11.90;7.80;;;20.40;99.90;;;;;;5013191;28;20176;-79
2023/06/16 06:34:03;;;;;;;10.17;7.30;;;20.50;1.00;;;;;;5013063;28;20905;-80
2023/06/16 06:36:29;;;;;;;10.80;8.17;;;20.60;99.90;;;;;;5013151;28;20191;-83
2023/06/16 06:38:55;;;;;;;9.50;8.50;;;20.60;99.90;;;;;;5014305;28;20174;-80
2023/06/16 06:41:22;;;;;;;10.30;9.10;;;20.60;99.90;;;;;;5032356;28;20179;-85
2023/06/16 06:43:48;;;;;;;12.10;8.97;;;20.80;1.00;;;;;;5016948;28;20405;-80
2023/06/16 06:46:13;;;;;;;8.77;7.90;;;20.80;99.90;;;;;;5016757;28;20457;-86
2023/06/16 06:48:39;;;;;;;9.80;7.97;;;20.90;99.90;;;;;;5015772;28;20631;-80
2023/06/16 06:51:05;;;;;;;8.27;7.47;;;21.10;1.00;;;;;;5016867;28;20539;-80
2023/06/16 06:53:31;;;;;;;9.33;7.50;;;21.20;60.40;;;;;;5016559;28;20609;-80
2023/06/16 06:55:57;;;;;;;7.73;6.90;;;21.20;1.00;;;;;;5016784;28;20172;-80
2023/06/16 06:58:22;;;;;;;10.27;6.87;;;21.40;1.00;;;;;;5016776;28;20414;-81
2023/06/16 07:00:48;;;;;;;6.73;6.03;;;21.60;99.90;;;;;;5016647;28;20406;-79
2023/06/16 07:03:14;;;;;;;11.63;5.53;;;21.90;99.90;;;;;;5016715;28;20180;-80
2023/06/16 07:05:40;;;;;;;6.00;4.63;;;22.00;1.00;;;;;;5016290;28;20694;-79
2023/06/16 07:08:05;;;;;;;5.20;4.53;;;22.10;1.00;;;;;;5016244;28;20704;-79
2023/06/16 07:10:32;;;;;;;6.80;4.10;;;22.30;99.90;;;;;;5016443;28;20411;-80
2023/06/16 07:12:58;;;;;;;6.23;4.77;;;22.40;99.90;;;;;;5016389;28;20168;-80
2023/06/16 07:15:24;;;;;;;5.10;4.30;;;22.40;99.90;;;;;;5016355;28;20415;-81
2023/06/16 07:17:49;;;;;;;6.13;4.03;;;22.40;99.90;;;;;;5016486;28;20423;-83
2023/06/16 07:20:15;;;;;;;6.37;4.27;;;22.10;99.90;;;;;;5016252;28;20177;-79
2023/06/16 07:22:42;;;;;;;4.13;3.30;;;22.30;99.90;;;;;;5015966;28;20193;-79
2023/06/16 07:25:08;;;;;;;3.90;3.17;;;22.40;99.90;;;;;;5016263;28;20166;-79
2023/06/16 07:27:33;;;;;;;7.20;3.30;;;22.50;99.90;;;;;;5016097;28;20551;-80
2023/06/16 07:29:59;;;;;;;4.10;3.60;;;22.70;54.40;;;;;;5016148;28;20210;-80
2023/06/16 07:32:24;;;;;;;7.63;4.13;;;22.70;49.00;;;;;;5016107;28;20164;-80
2023/06/16 07:34:52;;;;;;;4.53;3.40;;;23.10;52.00;;;;;;5016114;28;20172;-83
2023/06/16 07:37:17;;;;;;;5.03;4.13;;;23.40;32.20;;;;;;5015734;28;20183;-80
2023/06/16 07:39:43;;;;;;;4.70;3.67;;;24.20;12.50;;;;;;5016028;28;20493;-80
2023/06/16 07:42:08;;;;;;;5.07;4.57;;;24.80;1.00;;;;;;5016421;28;20167;-79
2023/06/16 07:44:34;;;;;;;6.00;4.40;;;25.20;1.00;;;;;;5015856;28;20697;-80
2023/06/16 07:46:59;;;;;;;4.80;4.23;;;25.70;1.00;;;;;;5015699;28;20218;-79
2023/06/16 07:49:25;;;;;;;4.10;3.40;;;26.30;1.00;;;;;;5015805;28;20174;-86
2023/06/16 07:51:51;;;;;;;4.87;3.33;;;27.00;1.00;;;;;;5029962;28;20662;-87
2023/06/16 07:54:17;;;;;;;4.60;3.67;;;27.70;1.00;;;;;;5015684;28;20414;-86
2023/06/16 07:56:42;;;;;;;5.50;3.67;;;28.30;1.00;;;;;;5015671;28;20179;-86
2023/06/16 07:59:08;;;;;;;4.33;2.90;;;28.80;1.00;;;;;;5015563;28;20692;-85
2023/06/16 08:01:33;;;;;;;3.10;2.40;;;29.20;1.00;;;;;;5015566;28;20264;-87
2023/06/16 08:03:59;;;;;;;3.23;2.93;;;29.30;1.00;;;;;;5015556;28;20295;-82
2023/06/16 08:06:25;;;;;;;5.00;3.13;;;29.30;1.00;;;;;;5015218;28;20226;-84
2023/06/16 08:08:52;;;;;;;3.23;2.93;;;29.10;1.00;;;;;;5015152;28;20611;-81
2023/06/16 08:11:18;;;;;;;4.10;3.67;;;28.70;1.00;;;;;;5015381;28;20413;-86
2023/06/16 08:13:44;;;;;;;3.63;3.13;;;28.50;1.00;;;;;;5015224;28;20974;-80
2023/06/16 08:16:09;;;;;;;5.80;3.90;;;28.10;1.00;;;;;;5015246;28;20509;-80
2023/06/16 08:18:35;;;;;;;6.27;3.80;;;27.70;1.00;;;;;;5015277;28;20175;-81
2023/06/16 08:21:01;;;;;;;5.30;3.17;;;27.20;1.00;;;;;;5015219;28;20171;-81
2023/06/16 08:23:26;;;;;;;4.90;4.30;;;26.60;1.00;;;;;;5013635;28;20174;-86
2023/06/16 08:25:53;;;;;;;4.60;3.53;;;26.20;1.00;;;;;;5014974;28;20238;-83
2023/06/16 08:28:19;;;;;;;4.53;4.07;;;25.70;1.00;;;;;;5015089;28;20170;-86
2023/06/16 08:30:45;;;;;;;3.70;3.37;;;25.30;1.00;;;;;;5014981;28;20455;-85
2023/06/16 08:33:10;;;;;;;4.67;4.27;;;25.10;1.00;;;;;;5014958;28;20416;-82
2023/06/16 08:35:36;;;;;;;6.37;4.73;;;24.80;1.00;;;;;;5014910;28;20178;-82
2023/06/16 08:38:01;;;;;;;5.30;3.83;;;24.70;1.00;;;;;;5014593;28;20223;-82
2023/06/16 08:40:27;;;;;;;5.17;4.67;;;24.60;1.00;;;;;;5014836;28;20176;-81
2023/06/16 08:42:55;;;;;;;6.20;5.60;;;24.30;1.00;;;;;;5014857;28;20199;-85
2023/06/16 08:45:21;;;;;;;6.10;4.93;;;24.20;1.00;;;;;;5014615;28;20647;-81
2023/06/16 08:47:46;;;;;;;6.10;4.83;;;24.00;1.00;;;;;;5014695;28;20517;-81
2023/06/16 08:50:13;;;;;;;6.27;5.60;;;24.00;1.00;;;;;;5014690;28;20172;-81
2023/06/16 08:52:40;;;;;;;6.90;6.20;;;23.90;1.00;;;;;;5014394;28;20596;-82
2023/06/16 08:55:13;;;;;;;5.77;4.90;;;23.90;1.00;;;;;;5014566;28;20759;-80
2023/06/16 08:57:46;;;;;;;6.40;5.40;;;23.80;1.00;;;;;;5013317;28;20515;-80
2023/06/16 09:00:13;;;;;;;8.03;6.00;;;23.80;18.50;;;;;;5014558;28;20435;-79
2023/06/16 09:02:41;;;;;;;6.40;5.80;;;23.70;33.60;;;;;;5013502;28;20929;-80
2023/06/16 09:05:07;;;;;;;7.37;6.67;;;23.60;64.50;;;;;;5014168;28;20414;-79
2023/06/16 09:07:33;;;;;;;7.03;5.67;;;23.40;99.90;;;;;;5013928;28;20527;-80
2023/06/16 09:09:58;;;;;;;6.40;4.67;;;23.30;99.90;;;;;;5014229;28;20823;-80
2023/06/16 09:12:24;;;;;;;5.73;5.00;;;23.20;99.90;;;;;;5014305;28;20208;-81
2023/06/16 09:14:50;;;;;;;7.40;6.60;;;23.10;99.90;;;;;;5014280;28;20517;-81
2023/06/16 09:17:22;;;;;;;6.40;5.53;;;22.90;99.90;;;;;;5014139;28;20627;-80
2023/06/16 09:19:48;;;;;;;7.57;6.00;;;22.80;1.00;;;;;;5014126;28;20416;-79
2023/06/16 09:22:22;;;;;;;10.20;7.23;;;22.70;1.00;;;;;;5013748;28;20419;-80
2023/06/16 09:24:59;;;;;;;9.93;8.80;;;22.50;99.90;;;;;;5014117;28;20252;-79
2023/06/16 09:27:47;;;;;;;8.43;7.53;;;22.30;1.00;;;;;;5013904;28;20930;-80
2023/06/16 09:30:14;;;;;;;8.30;7.60;;;22.30;1.00;;;;;;5012710;28;20834;-81
2023/06/16 09:32:40;;;;;;;9.30;7.57;;;22.30;99.90;;;;;;5013883;28;20856;-79
2023/06/16 09:35:20;;;;;;;8.13;7.33;;;22.10;69.10;;;;;;5013888;28;20454;-79
2023/06/16 09:37:48;;;;;;;7.70;6.90;;;22.10;99.90;;;;;;5013511;28;20504;-82
2023/06/16 09:40:15;;;;;;;9.23;7.00;;;22.10;99.90;;;;;;5013658;28;20446;-79
2023/06/16 09:42:41;;;;;;;7.10;6.50;;;22.10;99.90;;;;;;5013740;28;20424;-80
2023/06/16 09:45:12;;;;;;;9.83;7.20;;;22.10;99.90;;;;;;5013690;28;20407;-80
2023/06/16 09:47:41;;;;;;;6.83;6.10;;;22.10;99.90;;;;;;5013613;28;20475;-80
2023/06/16 09:50:13;;;;;;;7.23;6.53;;;22.10;99.90;;;;;;5013598;28;20414;-80
2023/06/16 09:52:38;;;;;;;8.30;7.00;;;22.10;1.00;;;;;;5013351;28;20772;-80
2023/06/16 09:55:06;;;;;;;8.20;7.40;;;22.20;99.90;;;;;;5013543;28;20472;-84
2023/06/16 09:57:32;;;;;;;8.37;7.57;;;22.40;1.00;;;;;;5013472;28;20185;-80
2023/06/16 09:59:57;;;;;;;8.10;7.03;;;22.50;99.90;;;;;;5013474;28;20433;-80
2023/06/16 10:02:25;;;;;;;9.20;7.80;;;22.60;1.00;;;;;;5013448;28;20411;-81
2023/06/16 10:04:54;;;;;;;8.20;7.03;;;22.80;1.00;;;;;;5013430;28;20192;-84
2023/06/16 10:07:20;;;;;;;8.90;7.33;;;23.10;1.00;;;;;;5011604;28;20493;-84
2023/06/16 10:09:50;;;;;;;7.30;6.60;;;23.30;1.00;;;;;;5013393;28;20418;-85
2023/06/16 10:12:18;;;;;;;6.17;5.40;;;23.60;99.90;;;;;;5013390;28;20178;-79
2023/06/16 10:14:45;;;;;;;6.17;5.67;;;23.80;99.90;;;;;;5012857;28;20425;-80
2023/06/16 10:17:12;;;;;;;6.97;5.00;;;23.70;1.00;;;;;;5013162;28;20852;-80
2023/06/16 10:19:43;;;;;;;6.17;4.93;;;23.70;1.00;;;;;;5013231;28;20428;-80
2023/06/16 10:22:09;;;;;;;5.53;4.73;;;23.70;99.90;;;;;;5012985;28;20400;-78
2023/06/16 10:24:36;;;;;;;5.13;4.63;;;23.60;99.90;;;;;;5013173;28;20516;-77
2023/06/16 10:27:02;;;;;;;5.23;4.10;;;23.50;99.90;;;;;;5013048;28;20471;-84
2023/06/16 10:29:28;;;;;;;5.43;4.80;;;23.50;99.90;;;;;;5013131;28;20467;-84
2023/06/16 10:32:13;;;;;;;7.23;4.30;;;23.60;99.90;;;;;;5013245;28;20767;-81
2023/06/16 10:34:51;;;;;;;5.20;4.20;;;23.60;99.90;;;;;;5013184;28;20413;-80
2023/06/16 10:37:21;;;;;;;5.33;4.20;;;23.50;99.90;;;;;;5012778;28;20404;-85
2023/06/16 10:39:47;;;;;;;7.83;4.83;;;23.50;1.00;;;;;;5013030;28;20413;-80
2023/06/16 10:42:14;;;;;;;8.10;4.60;;;23.40;1.00;;;;;;5013079;28;20885;-80
2023/06/16 10:44:40;;;;;;;5.60;4.70;;;23.30;1.00;;;;;;5013112;28;20416;-80
2023/06/16 10:47:09;;;;;;;4.90;4.13;;;23.30;1.00;;;;;;5012908;28;20471;-80
2023/06/16 10:49:52;;;;;;;5.37;4.23;;;23.20;1.00;;;;;;5013023;28;20420;-80
2023/06/16 10:52:17;;;;;;;5.10;4.30;;;23.20;1.00;;;;;;5012614;28;20435;-80
2023/06/16 10:54:45;;;;;;;5.87;4.50;;;23.30;92.00;;;;;;5011678;28;20428;-80
2023/06/16 10:57:14;;;;;;;6.90;4.63;;;23.40;99.90;;;;;;5013305;28;20165;-80
2023/06/16 10:59:57;;;;;;;5.10;4.17;;;23.50;75.50;;;;;;5012877;28;20423;-80
2023/06/16 11:02:25;;;;;;;8.77;4.33;;;23.70;1.00;;;;;;5011973;28;20492;-80
2023/06/16 11:05:10;;;;;;;11.00;4.20;;;23.80;1.00;;;;;;5012822;28;20415;-81
2023/06/16 11:08:15;;;;;;;5.97;4.73;;;23.90;1.00;;;;;;5012365;28;20546;-80
2023/06/16 11:10:56;;;;;;;4.70;3.73;;;24.00;1.00;;;;;;5012787;28;20408;-79
2023/06/16 11:13:33;;;;;;;5.63;5.13;;;24.10;99.90;;;;;;5012724;28;20499;-81
2023/06/16 11:16:00;;;;;;;4.70;4.00;;;24.10;99.90;;;;;;5012681;28;20515;-79
2023/06/16 11:18:26;;;;;;;6.53;4.30;;;24.10;99.90;;;;;;5012618;28;20408;-78
2023/06/16 11:20:56;;;;;;;6.53;3.97;;;24.00;99.90;;;;;;5012765;28;20775;-77
2023/06/16 11:23:22;;;;;;;5.23;4.40;;;24.20;99.90;;;;;;5012716;28;20458;-78
2023/06/16 11:25:48;;;;;;;3.50;3.20;;;24.20;99.90;;;;;;5013952;28;20963;-77
2023/06/16 11:28:13;;;;;;;4.57;3.83;;;24.20;99.90;;;;;;5016251;28;20675;-77
2023/06/16 11:30:39;;;;;;;5.87;4.70;;;24.10;99.90;;;;;;5014942;28;20425;-78
2023/06/16 11:33:06;;;;;;;5.40;3.40;;;24.10;99.90;;;;;;5016231;28;20232;-78
2023/06/16 11:35:33;;;;;;;4.53;3.73;;;24.10;99.90;;;;;;5016096;28;20180;-82
2023/06/16 11:37:59;;;;;;;10.13;4.70;;;24.00;99.90;;;;;;5015786;28;20430;-77
2023/06/16 11:40:32;;;;;;;4.53;4.00;;;24.00;99.90;;;;;;5016004;28;20445;-77
2023/06/16 11:43:00;;;;;;;6.97;3.93;;;24.10;99.90;;;;;;5015907;28;20409;-77
2023/06/16 11:45:27;;;;;;;5.30;3.13;;;24.00;99.90;;;;;;5015732;28;20473;-77
2023/06/16 11:47:55;;;;;;;5.03;3.73;;;24.10;99.90;;;;;;5014609;28;20831;-83
2023/06/16 11:50:22;;;;;;;7.97;4.47;;;24.10;99.90;;;;;;5015851;28;20424;-77
2023/06/16 11:52:49;;;;;;;5.00;3.67;;;24.10;99.90;;;;;;5015349;28;20455;-77
2023/06/16 11:55:15;;;;;;;4.57;4.10;;;24.40;99.90;;;;;;5015659;28;20474;-77
2023/06/16 11:57:40;;;;;;;8.80;4.73;;;24.40;99.90;;;;;;5015717;28;20910;-78
2023/06/16 12:00:08;;;;;;;6.13;3.63;;;24.40;99.90;;;;;;5015642;28;20181;-77
2023/06/16 12:02:34;;;;;;;4.90;4.40;;;24.40;99.90;;;;;;5015618;28;20169;-81
2023/06/16 12:05:01;;;;;;;6.67;4.20;;;24.30;99.90;;;;;;5015400;28;20439;-77
2023/06/16 12:07:26;;;;;;;4.50;4.00;;;24.20;99.90;;;;;;5015054;28;20550;-81
2023/06/16 12:09:55;;;;;;;7.13;5.00;;;23.90;99.90;;;;;;5015381;28;20930;-80
2023/06/16 12:12:21;;;;;;;5.47;4.37;;;23.90;1.00;;;;;;5015413;28;20269;-86
2023/06/16 12:14:47;;;;;;;5.03;4.40;;;23.80;45.20;;;;;;5015398;28;20886;-80
2023/06/16 12:17:12;;;;;;;6.90;5.17;;;23.70;99.90;;;;;;5015274;28;20668;-80
2023/06/16 12:19:38;;;;;;;5.20;4.67;;;23.60;99.90;;;;;;5014144;28;20296;-80
2023/06/16 12:22:05;;;;;;;6.93;4.93;;;23.50;1.00;;;;;;5014900;28;20539;-79
2023/06/16 12:24:31;;;;;;;6.80;4.50;;;23.40;99.90;;;;;;5015239;28;20892;-79
2023/06/16 12:26:56;;;;;;;5.83;5.10;;;23.30;99.90;;;;;;5030232;28;20472;-80
2023/06/16 12:29:26;;;;;;;8.73;5.70;;;23.20;1.00;;;;;;5015019;28;20426;-81
2023/06/16 12:32:00;;;;;;;6.47;5.43;;;23.00;1.00;;;;;;5014964;28;20225;-80
2023/06/16 12:34:35;;;;;;;5.93;5.27;;;23.10;99.90;;;;;;5015016;28;20423;-80
2023/06/16 12:37:06;;;;;;;5.10;4.60;;;23.10;99.90;;;;;;5014467;28;20935;-84
2023/06/16 12:39:33;;;;;;;8.50;5.87;;;23.10;1.00;;;;;;5014857;28;20418;-80
2023/06/16 12:42:00;;;;;;;8.77;5.83;;;23.10;30.80;;;;;;5014826;28;20409;-80
2023/06/16 12:44:52;;;;;;;6.27;5.67;;;23.20;1.00;;;;;;5014796;28;20943;-81
2023/06/16 12:47:23;;;;;;;6.13;4.97;;;23.40;1.00;;;;;;5013417;28;20473;-80
2023/06/16 12:49:51;;;;;;;6.63;5.80;;;23.40;1.00;;;;;;5014633;28;20423;-81
2023/06/16 12:52:19;;;;;;;6.37;5.77;;;23.20;1.00;;;;;;5014317;28;20443;-79